Time;durP1;ratioP1;P1;durP2;ratioP2;P2;SDS_P1;SDS_P2;PMS_P1;PMS_P2;Temp;Humidity;BMP_temperature;BMP_pressure;BME280_temperature;BME280_humidity;BME280_pressure;Samples;Min_cycle;Max_cycle;Signal;HPM_P1;HPM_P2
2022/06/20 00:01:34;;;;;;;;;39.67;33.67;;;;;-143.57;100.00;65101.44;5097550;27;45409;-56
2022/06/20 00:04:00;;;;;;;;;33.00;29.00;;;;;-143.57;100.00;65101.44;5097568;27;45221;-61
2022/06/20 00:06:25;;;;;;;;;35.33;31.67;;;;;-143.57;100.00;65101.44;5097179;27;45304;-53
2022/06/20 00:08:52;;;;;;;;;41.00;30.67;;;;;-143.57;100.00;65101.44;5096900;27;45279;-52
2022/06/20 00:11:24;;;;;;;;;33.67;29.33;;;;;-143.57;100.00;65101.44;5097450;27;45245;-61
2022/06/20 00:13:53;;;;;;;;;35.00;32.33;;;;;-143.57;100.00;65101.44;5097132;27;45279;-52
2022/06/20 00:16:20;;;;;;;;;36.00;31.67;;;;;-143.57;100.00;65101.44;5096757;27;46610;-59
2022/06/20 00:18:46;;;;;;;;;29.67;29.00;;;;;-143.57;100.00;65101.44;5097205;27;45370;-44
2022/06/20 00:21:15;;;;;;;;;36.00;30.33;;;;;-143.57;100.00;65101.44;5096117;27;45373;-58
2022/06/20 00:23:40;;;;;;;;;36.33;29.00;;;;;-143.57;100.00;65101.44;5097284;27;45399;-41
2022/06/20 00:26:07;;;;;;;;;28.00;27.67;;;;;-143.57;100.00;65101.44;5096802;27;46025;-55
2022/06/20 00:28:33;;;;;;;;;37.67;33.00;;;;;-143.57;100.00;65101.44;5096908;27;45247;-50
2022/06/20 00:31:00;;;;;;;;;39.00;31.33;;;;;-143.57;100.00;65101.44;5078469;27;45448;-61
2022/06/20 00:33:25;;;;;;;;;28.33;27.33;;;;;-143.57;100.00;65101.44;5097087;27;45299;-55
2022/06/20 00:35:53;;;;;;;;;32.00;29.00;;;;;-143.57;100.00;65101.44;5096638;27;45395;-55
2022/06/20 00:38:20;;;;;;;;;35.67;31.00;;;;;-143.57;100.00;65101.44;5096841;27;45458;-54
2022/06/20 00:40:52;;;;;;;;;32.33;30.67;;;;;-143.57;100.00;65101.44;5096897;27;45503;-44
2022/06/20 00:43:39;;;;;;;;;32.00;28.67;;;;;-143.57;100.00;65101.44;5096982;27;45327;-46
2022/06/20 00:46:11;;;;;;;;;39.33;30.00;;;;;-143.57;100.00;65101.44;5096179;27;46329;-54
2022/06/20 00:48:42;;;;;;;;;31.00;27.33;;;;;-143.57;100.00;65101.44;5096721;27;45422;-52
2022/06/20 00:51:25;;;;;;;;;39.33;29.00;;;;;-143.57;100.00;65101.44;5078231;27;45438;-50
2022/06/20 00:53:57;;;;;;;;;32.33;28.33;;;;;-143.57;100.00;65101.44;5096681;27;45463;-60
2022/06/20 00:56:27;;;;;;;;;33.33;30.33;;;;;-143.57;100.00;65101.44;5096471;27;45314;-45
2022/06/20 00:59:01;;;;;;;;;37.67;34.00;;;;;-143.57;100.00;65101.44;5096693;27;45434;-61
2022/06/20 01:01:33;;;;;;;;;39.00;32.33;;;;;-143.57;100.00;65101.44;5098812;27;45387;-42
2022/06/20 01:04:05;;;;;;;;;30.33;26.33;;;;;-143.57;100.00;65101.44;5100294;27;45442;-48
2022/06/20 01:06:37;;;;;;;;;25.33;24.33;;;;;-143.57;100.00;65101.44;5100031;27;45478;-43
2022/06/20 01:09:09;;;;;;;;;35.33;31.00;;;;;-143.57;100.00;65101.44;5100204;27;45506;-43
2022/06/20 01:11:45;;;;;;;;;34.00;27.33;;;;;-143.57;100.00;65101.44;5099897;27;45412;-53
2022/06/20 01:14:35;;;;;;;;;35.33;31.00;;;;;-143.57;100.00;65101.44;5099991;27;45263;-55
2022/06/20 01:17:32;;;;;;;;;30.00;28.67;;;;;-143.57;100.00;65101.44;5099592;27;45483;-41
2022/06/20 01:20:08;;;;;;;;;37.67;31.33;;;;;-143.57;100.00;65101.44;5093525;27;45412;-52
2022/06/20 01:23:07;;;;;;;;;29.33;26.67;;;;;-143.57;100.00;65101.44;5099585;27;45362;-46
2022/06/20 01:26:00;;;;;;;;;31.67;29.00;;;;;-143.57;100.00;65101.44;5099737;27;45402;-46
2022/06/20 01:28:33;;;;;;;;;31.00;29.00;;;;;-143.57;100.00;65101.44;5099179;27;46106;-45
2022/06/20 01:30:59;;;;;;;;;31.33;28.33;;;;;-143.57;100.00;65101.44;5099454;27;45457;-45
2022/06/20 01:33:25;;;;;;;;;31.00;27.33;;;;;-143.57;100.00;65101.44;5099710;27;45487;-46
2022/06/20 01:38:38;;;;;;;;;32.33;28.00;;;;;-143.57;100.00;65101.44;5099139;27;45403;-52
2022/06/20 01:43:49;;;;;;;;;27.67;27.00;;;;;-143.57;100.00;65101.44;5099493;27;45457;-48
2022/06/20 01:46:16;;;;;;;;;35.33;27.33;;;;;-143.57;100.00;65101.44;5099192;27;45394;-59
2022/06/20 01:48:51;;;;;;;;;26.67;24.33;;;;;-143.57;100.00;65101.44;5098980;27;46544;-45
2022/06/20 01:51:26;;;;;;;;;27.33;27.00;;;;;-143.57;100.00;65101.44;5099274;27;45306;-53
2022/06/20 01:53:54;;;;;;;;;30.00;29.00;;;;;-143.57;100.00;65101.44;5099442;27;45417;-48
2022/06/20 01:56:22;;;;;;;;;27.33;25.33;;;;;-143.57;100.00;65101.44;5099325;27;45386;-44
2022/06/20 01:59:02;;;;;;;;;28.00;26.67;;;;;-143.57;100.00;65101.44;5099068;27;46239;-48
2022/06/20 02:01:30;;;;;;;;;22.67;21.00;;;;;-143.57;100.00;65101.44;5098949;27;45704;-46
2022/06/20 02:03:56;;;;;;;;;26.33;23.33;;;;;-143.57;100.00;65101.44;5098497;27;45476;-50
2022/06/20 02:06:22;;;;;;;;;25.33;22.00;;;;;-143.57;100.00;65101.44;5099270;27;45275;-51
2022/06/20 02:08:51;;;;;;;;;29.00;24.33;;;;;-143.57;100.00;65101.44;5098845;27;47270;-58
2022/06/20 02:11:24;;;;;;;;;26.33;24.67;;;;;-143.57;100.00;65101.44;5098922;27;45433;-59
2022/06/20 02:13:55;;;;;;;;;29.67;28.00;;;;;-143.57;100.00;65101.44;5098216;27;45482;-54
2022/06/20 02:16:24;;;;;;;;;31.67;28.33;;;;;-143.57;100.00;65101.44;5099026;27;45471;-46
2022/06/20 02:18:54;;;;;;;;;27.00;26.67;;;;;-143.57;100.00;65101.44;5098581;27;46391;-43
2022/06/20 02:21:24;;;;;;;;;24.33;19.33;;;;;-143.57;100.00;65101.44;5098273;27;45308;-44
2022/06/20 02:23:55;;;;;;;;;28.00;26.00;;;;;-143.57;100.00;65101.44;5098923;27;45489;-45
2022/06/20 02:26:22;;;;;;;;;29.00;26.00;;;;;-143.57;100.00;65101.44;5098875;27;45504;-56
2022/06/20 02:29:04;;;;;;;;;27.67;24.00;;;;;-143.57;100.00;65101.44;5098508;27;47394;-50
2022/06/20 02:31:29;;;;;;;;;26.00;23.67;;;;;-143.57;100.00;65101.44;5098403;27;45420;-47
2022/06/20 02:33:56;;;;;;;;;30.33;25.00;;;;;-143.57;100.00;65101.44;5098669;27;45252;-58
2022/06/20 02:36:22;;;;;;;;;33.67;24.00;;;;;-143.57;100.00;65101.44;5098544;27;45519;-44
2022/06/20 02:38:48;;;;;;;;;25.00;23.33;;;;;-143.57;100.00;65101.44;5098725;27;45287;-52
2022/06/20 02:41:19;;;;;;;;;29.33;26.00;;;;;-143.57;100.00;65101.44;5098456;27;45295;-49
2022/06/20 02:43:59;;;;;;;;;27.67;20.67;;;;;-143.57;100.00;65101.44;5098686;27;45319;-40
2022/06/20 02:46:27;;;;;;;;;29.00;23.00;;;;;-143.57;100.00;65101.44;5098578;27;45372;-48
2022/06/20 02:48:55;;;;;;;;;24.33;22.67;;;;;-143.57;100.00;65101.44;5097531;27;45620;-47
2022/06/20 02:51:28;;;;;;;;;22.33;21.33;;;;;-143.57;100.00;65101.44;5098304;27;45435;-51
2022/06/20 02:53:59;;;;;;;;;19.67;19.67;;;;;-143.57;100.00;65101.44;5097881;27;45381;-56
2022/06/20 02:56:28;;;;;;;;;23.33;23.00;;;;;-143.57;100.00;65101.44;5098787;27;45454;-52
2022/06/20 02:59:04;;;;;;;;;22.67;21.00;;;;;-143.57;100.00;65101.44;5097261;27;45334;-48
2022/06/20 03:02:12;;;;;;;;;25.00;21.33;;;;;-143.57;100.00;65101.44;5097813;27;45346;-46
2022/06/20 03:04:42;;;;;;;;;26.33;22.00;;;;;-143.57;100.00;65101.44;5014913;28;45487;-53
2022/06/20 03:07:13;;;;;;;;;24.67;21.33;;;;;-143.57;100.00;65101.44;5015216;28;45496;-56
2022/06/20 03:09:43;;;;;;;;;26.33;23.33;;;;;-143.57;100.00;65101.44;5015054;28;45273;-61
2022/06/20 03:12:10;;;;;;;;;28.67;22.33;;;;;-143.57;100.00;65101.44;5014877;28;45562;-61
2022/06/20 03:14:49;;;;;;;;;29.33;25.33;;;;;-143.57;100.00;65101.44;5015249;28;45317;-60
2022/06/20 03:17:18;;;;;;;;;21.00;19.00;;;;;-143.57;100.00;65101.44;5014953;28;45424;-58
2022/06/20 03:19:48;;;;;;;;;24.33;22.00;;;;;-143.57;100.00;65101.44;5014934;28;46339;-57
2022/06/20 03:22:19;;;;;;;;;26.33;25.33;;;;;-143.57;100.00;65101.44;5014508;28;45383;-60
2022/06/20 03:24:47;;;;;;;;;28.00;25.67;;;;;-143.57;100.00;65101.44;5014770;28;45353;-62
2022/06/20 03:27:23;;;;;;;;;26.00;26.00;;;;;-143.57;100.00;65101.44;5014985;28;45551;-61
2022/06/20 03:29:54;;;;;;;;;29.00;27.00;;;;;-143.57;100.00;65101.44;5014329;28;46237;-61
2022/06/20 03:32:29;;;;;;;;;26.67;25.67;;;;;-143.57;100.00;65101.44;5013483;28;45531;-61
2022/06/20 03:34:54;;;;;;;;;25.00;23.67;;;;;-143.57;100.00;65101.44;5042119;27;45364;-56
2022/06/20 03:37:21;;;;;;;;;34.33;29.33;;;;;-143.57;100.00;65101.44;5097895;27;45267;-59
2022/06/20 03:39:48;;;;;;;;;25.00;21.67;;;;;-143.57;100.00;65101.44;5097040;27;45445;-46
2022/06/20 03:42:14;;;;;;;;;31.33;26.00;;;;;-143.57;100.00;65101.44;5097607;27;45402;-50
2022/06/20 03:44:47;;;;;;;;;26.67;25.00;;;;;-143.57;100.00;65101.44;5097556;27;45366;-57
2022/06/20 03:47:23;;;;;;;;;24.00;20.67;;;;;-143.57;100.00;65101.44;5097559;27;45401;-56
2022/06/20 03:49:55;;;;;;;;;29.67;29.33;;;;;-143.57;100.00;65101.44;5097297;27;46091;-45
2022/06/20 03:52:27;;;;;;;;;35.67;30.00;;;;;-143.57;100.00;65101.44;5097165;27;45398;-42
2022/06/20 03:55:36;;;;;;;;;28.67;24.67;;;;;-143.57;100.00;65101.44;5097291;27;45425;-60
2022/06/20 03:58:15;;;;;;;;;28.33;22.67;;;;;-143.57;100.00;65101.44;5014653;28;45455;-60
2022/06/20 04:00:50;;;;;;;;;28.33;23.00;;;;;-143.57;100.00;65101.44;5014268;28;46200;-58
2022/06/20 04:03:34;;;;;;;;;27.00;22.67;;;;;-143.57;100.00;65101.44;5014208;28;45565;-60
2022/06/20 04:06:11;;;;;;;;;30.00;24.00;;;;;-143.57;100.00;65101.44;5014145;28;45326;-59
2022/06/20 04:11:45;;;;;;;;;27.33;23.00;;;;;-143.57;100.00;65101.44;5014279;28;45824;-43
2022/06/20 04:14:21;;;;;;;;;22.67;20.67;;;;;-143.57;100.00;65101.44;5014222;28;45419;-58
2022/06/20 04:18:27;;;;;;;;;27.67;25.00;;;;;-143.57;100.00;65101.44;5014298;28;45411;-40
2022/06/20 04:19:51;;;;;;;;;29.33;23.33;;;;;-143.57;100.00;65101.44;5014184;28;45539;-56
2022/06/20 04:22:20;;;;;;;;;24.67;20.67;;;;;-143.57;100.00;65101.44;5013763;28;46370;-42
2022/06/20 04:25:01;;;;;;;;;29.33;23.33;;;;;-143.57;100.00;65101.44;5013952;28;45459;-43
2022/06/20 04:27:35;;;;;;;;;26.00;25.33;;;;;-143.57;100.00;65101.44;5013905;28;45262;-39
2022/06/20 04:30:09;;;;;;;;;28.33;27.00;;;;;-143.57;100.00;65101.44;4997930;28;45359;-48
2022/06/20 04:32:55;;;;;;;;;26.33;24.67;;;;;-143.57;100.00;65101.44;5025929;27;47264;-57
2022/06/20 04:35:25;;;;;;;;;32.67;26.33;;;;;-143.57;100.00;65101.44;5097477;27;45251;-56
2022/06/20 04:38:12;;;;;;;;;34.67;26.67;;;;;-143.57;100.00;65101.44;5100585;27;45443;-53
2022/06/20 04:40:45;;;;;;;;;31.33;29.67;;;;;-143.57;100.00;65101.44;5100476;27;45525;-44
2022/06/20 04:43:43;;;;;;;;;32.33;29.00;;;;;-143.57;100.00;65101.44;5100357;27;46421;-45
2022/06/20 04:46:20;;;;;;;;;29.33;23.33;;;;;-143.57;100.00;65101.44;5099937;27;45374;-57
2022/06/20 04:48:47;;;;;;;;;33.33;29.33;;;;;-143.57;100.00;65101.44;5100008;27;45378;-60
2022/06/20 04:51:18;;;;;;;;;31.33;30.00;;;;;-143.57;100.00;65101.44;5100634;27;45279;-48
2022/06/20 04:53:46;;;;;;;;;30.00;25.00;;;;;-143.57;100.00;65101.44;5099942;27;45323;-55
2022/06/20 04:56:25;;;;;;;;;23.67;23.67;;;;;-143.57;100.00;65101.44;5115989;27;45541;-57
2022/06/20 04:58:58;;;;;;;;;33.33;28.00;;;;;-143.57;100.00;65101.44;5100150;27;45420;-56
2022/06/20 05:01:25;;;;;;;;;35.00;28.33;;;;;-143.57;100.00;65101.44;5099176;27;45393;-60
2022/06/20 05:03:58;;;;;;;;;31.67;27.67;;;;;-143.57;100.00;65101.44;5099439;27;46802;-59
2022/06/20 05:06:27;;;;;;;;;29.67;27.00;;;;;-143.57;100.00;65101.44;5099818;27;45200;-59
2022/06/20 05:08:58;;;;;;;;;28.00;25.00;;;;;-143.57;100.00;65101.44;5099885;27;45433;-60
2022/06/20 05:11:31;;;;;;;;;28.00;24.67;;;;;-143.57;100.00;65101.44;5100015;27;45303;-49
2022/06/20 05:14:28;;;;;;;;;24.00;20.33;;;;;-143.57;100.00;65101.44;5099373;27;47042;-57
2022/06/20 05:16:54;;;;;;;;;25.00;23.00;;;;;-143.57;100.00;65101.44;5099549;27;45487;-44
2022/06/20 05:19:28;;;;;;;;;31.67;28.00;;;;;-143.57;100.00;65101.44;5099717;27;45306;-43
2022/06/20 05:21:58;;;;;;;;;26.33;22.67;;;;;-143.57;100.00;65101.44;5099725;27;45280;-56
2022/06/20 05:24:28;;;;;;;;;26.33;25.00;;;;;-143.57;100.00;65101.44;5099461;27;45367;-57
2022/06/20 05:26:55;;;;;;;;;29.00;25.00;;;;;-143.57;100.00;65101.44;5099519;27;45274;-45
2022/06/20 05:29:24;;;;;;;;;30.00;24.33;;;;;-143.57;100.00;65101.44;5099572;27;45397;-48
2022/06/20 05:31:53;;;;;;;;;21.33;20.33;;;;;-143.57;100.00;65101.44;5099942;27;45440;-61
2022/06/20 05:34:39;;;;;;;;;28.67;26.67;;;;;-143.57;100.00;65101.44;5099341;27;46280;-59
2022/06/20 05:37:21;;;;;;;;;27.00;23.33;;;;;-143.57;100.00;65101.44;5099014;27;45428;-61
2022/06/20 05:39:55;;;;;;;;;23.67;21.67;;;;;-143.57;100.00;65101.44;5099463;27;45288;-59
2022/06/20 05:42:20;;;;;;;;;26.33;24.00;;;;;-143.57;100.00;65101.44;5099558;27;45482;-56
2022/06/20 05:44:46;;;;;;;;;25.67;24.00;;;;;-143.57;100.00;65101.44;5099295;27;45280;-58
2022/06/20 05:47:29;;;;;;;;;30.00;23.00;;;;;-143.57;100.00;65101.44;5097960;27;45414;-45
2022/06/20 05:50:03;;;;;;;;;29.33;27.00;;;;;-143.57;100.00;65101.44;5099372;27;45321;-60
2022/06/20 05:52:30;;;;;;;;;24.00;23.00;;;;;-143.57;100.00;65101.44;5081047;27;45408;-55
2022/06/20 05:55:04;;;;;;;;;21.00;21.00;;;;;-143.57;100.00;65101.44;5099009;27;46369;-61
2022/06/20 05:57:33;;;;;;;;;26.67;24.67;;;;;-143.57;100.00;65101.44;5099233;27;45481;-47
2022/06/20 06:00:16;;;;;;;;;24.33;21.00;;;;;-143.57;100.00;65101.44;5099201;27;45212;-48
2022/06/20 06:02:44;;;;;;;;;21.33;19.67;;;;;-143.57;100.00;65101.44;5099057;27;45501;-57
2022/06/20 06:05:32;;;;;;;;;24.67;24.00;;;;;-143.57;100.00;65101.44;5099031;27;45378;-49
2022/06/20 06:08:14;;;;;;;;;26.00;22.33;;;;;-143.57;100.00;65101.44;5098710;27;45448;-44
2022/06/20 06:10:45;;;;;;;;;19.67;18.67;;;;;-143.57;100.00;65101.44;5099006;27;45509;-53
2022/06/20 06:13:17;;;;;;;;;25.33;18.33;;;;;-143.57;100.00;65101.44;5099176;27;45181;-56
2022/06/20 06:19:34;;;;;;;;;21.00;19.33;;;;;-143.57;100.00;65101.44;5035543;28;45514;-58
2022/06/20 06:22:05;;;;;;;;;22.33;19.00;;;;;-143.57;100.00;65101.44;5035593;28;45257;-58
2022/06/20 06:24:34;;;;;;;;;21.00;17.00;;;;;-143.57;100.00;65101.44;5036097;28;45457;-63
2022/06/20 06:27:02;;;;;;;;;24.33;22.00;;;;;-143.57;100.00;65101.44;5035292;28;45414;-61
2022/06/20 06:29:46;;;;;;;;;22.67;20.67;;;;;-143.57;100.00;65101.44;5035790;28;45591;-63
2022/06/20 06:32:20;;;;;;;;;19.00;19.00;;;;;-143.57;100.00;65101.44;5035660;28;45366;-64
2022/06/20 06:35:14;;;;;;;;;18.67;15.67;;;;;-143.57;100.00;65101.44;5035552;28;45597;-41
2022/06/20 06:37:47;;;;;;;;;20.00;18.00;;;;;-143.57;100.00;65101.44;5035461;28;45879;-42
2022/06/20 06:40:39;;;;;;;;;17.67;15.33;;;;;-143.57;100.00;65101.44;5035370;28;45412;-63
2022/06/20 06:43:19;;;;;;;;;13.67;13.67;;;;;-143.57;100.00;65101.44;5035043;28;45517;-59
2022/06/20 06:45:46;;;;;;;;;13.33;13.00;;;;;-143.57;100.00;65101.44;5035730;28;45257;-60
2022/06/20 06:48:18;;;;;;;;;19.00;17.00;;;;;-143.57;100.00;65101.44;5035062;28;46315;-47
2022/06/20 06:51:06;;;;;;;;;19.67;15.00;;;;;-143.57;100.00;65101.44;5075472;27;45452;-60
2022/06/20 06:53:40;;;;;;;;;19.67;14.67;;;;;-143.57;100.00;65101.44;5097717;27;45393;-63
2022/06/20 06:56:16;;;;;;;;;18.00;18.00;;;;;-143.57;100.00;65101.44;5080117;27;45457;-62
2022/06/20 06:59:08;;;;;;;;;14.33;12.67;;;;;-143.57;100.00;65101.44;5097447;27;46327;-63
2022/06/20 07:01:40;;;;;;;;;17.33;14.33;;;;;-143.57;100.00;65101.44;5098133;27;45637;-64
2022/06/20 07:04:31;;;;;;;;;16.33;14.00;;;;;-143.57;100.00;65101.44;5098203;27;45414;-55
2022/06/20 07:07:05;;;;;;;;;17.67;13.00;;;;;-143.57;100.00;65101.44;5098030;27;45405;-62
2022/06/20 07:09:48;;;;;;;;;16.00;15.33;;;;;-143.57;100.00;65101.44;5098183;27;46401;-55
2022/06/20 07:12:17;;;;;;;;;11.00;11.00;;;;;-143.57;100.00;65101.44;5097058;27;45409;-53
2022/06/20 07:14:48;;;;;;;;;14.67;13.00;;;;;-143.57;100.00;65101.44;5098180;27;45342;-64
2022/06/20 07:17:20;;;;;;;;;17.00;14.33;;;;;-143.57;100.00;65101.44;5098520;27;45420;-52
2022/06/20 07:19:48;;;;;;;;;16.67;12.67;;;;;-143.57;100.00;65101.44;5098549;27;47163;-64
2022/06/20 07:22:16;;;;;;;;;15.67;11.33;;;;;-143.57;100.00;65101.44;5099087;27;45327;-49
2022/06/20 07:24:44;;;;;;;;;17.00;14.67;;;;;-143.57;100.00;65101.44;5098686;27;45387;-48
2022/06/20 07:27:35;;;;;;;;;17.67;14.67;;;;;-143.57;100.00;65101.44;5099252;27;45396;-64
2022/06/20 07:30:07;;;;;;;;;14.00;12.33;;;;;-143.57;100.00;65101.44;5014973;28;46211;-55
2022/06/20 07:32:59;;;;;;;;;20.33;12.00;;;;;-143.57;100.00;65101.44;5014720;28;45340;-47
2022/06/20 07:35:32;;;;;;;;;20.67;16.67;;;;;-143.57;100.00;65101.44;5014898;28;45494;-61
2022/06/20 07:38:17;;;;;;;;;15.67;15.00;;;;;-143.57;100.00;65101.44;5015093;28;45519;-63
2022/06/20 07:40:55;;;;;;;;;17.00;15.00;;;;;-143.57;100.00;65101.44;5014627;28;46167;-65
2022/06/20 07:43:55;;;;;;;;;17.00;15.00;;;;;-143.57;100.00;65101.44;5014661;28;45462;-67
2022/06/20 07:46:49;;;;;;;;;13.00;13.00;;;;;-143.57;100.00;65101.44;4936341;28;45421;-56
2022/06/20 07:49:22;;;;;;;;;19.67;17.67;;;;;-143.57;100.00;65101.44;4898225;29;45373;-62
2022/06/20 07:51:53;;;;;;;;;18.67;17.33;;;;;-143.57;100.00;65101.44;4897973;29;46107;-62
2022/06/20 07:54:36;;;;;;;;;14.67;14.67;;;;;-143.57;100.00;65101.44;4898088;29;45421;-44
2022/06/20 07:57:14;;;;;;;;;21.00;15.67;;;;;-143.57;100.00;65101.44;4898418;29;45393;-59
2022/06/20 07:59:48;;;;;;;;;19.33;19.33;;;;;-143.57;100.00;65101.44;4898083;29;45394;-56
2022/06/20 08:02:32;;;;;;;;;17.67;16.00;;;;;-143.57;100.00;65101.44;4897892;29;46172;-62
2022/06/20 08:04:59;;;;;;;;;19.33;17.67;;;;;-143.57;100.00;65101.44;4897799;29;45442;-58
2022/06/20 08:07:31;;;;;;;;;18.33;17.33;;;;;-143.57;100.00;65101.44;4936816;28;45486;-49
2022/06/20 08:10:12;;;;;;;;;24.67;20.67;;;;;-143.57;100.00;65101.44;4955517;28;45633;-64
2022/06/20 08:12:58;;;;;;;;;19.33;16.67;;;;;-143.57;100.00;65101.44;4958790;28;46146;-44
2022/06/20 08:15:30;;;;;;;;;19.00;17.00;;;;;-143.57;100.00;65101.44;4958998;28;45478;-42
2022/06/20 08:17:55;;;;;;;;;22.67;19.00;;;;;-143.57;100.00;65101.44;4958980;28;45489;-43
2022/06/20 08:20:25;;;;;;;;;15.00;15.00;;;;;-143.57;100.00;65101.44;4958962;28;45510;-42
2022/06/20 08:23:16;;;;;;;;;21.33;16.67;;;;;-143.57;100.00;65101.44;4981392;28;47231;-45
2022/06/20 08:25:52;;;;;;;;;16.00;15.67;;;;;-143.57;100.00;65101.44;5056248;27;45519;-41
2022/06/20 08:28:21;;;;;;;;;20.00;16.67;;;;;-143.57;100.00;65101.44;5100504;27;45200;-65
2022/06/20 08:30:53;;;;;;;;;17.67;15.33;;;;;-143.57;100.00;65101.44;5100997;27;45488;-50
2022/06/20 08:33:25;;;;;;;;;14.00;14.00;;;;;-143.57;100.00;65101.44;5100308;27;48233;-63
2022/06/20 08:36:04;;;;;;;;;20.67;16.33;;;;;-143.57;100.00;65101.44;5100416;27;45426;-64
2022/06/20 08:38:34;;;;;;;;;18.67;14.33;;;;;-143.57;100.00;65101.44;5100517;27;45247;-60
2022/06/20 08:41:08;;;;;;;;;17.00;16.67;;;;;-143.57;100.00;65101.44;5100814;27;45396;-57
2022/06/20 08:43:36;;;;;;;;;24.33;16.33;;;;;-143.57;100.00;65101.44;5100446;27;45461;-46
2022/06/20 08:46:28;;;;;;;;;16.33;13.67;;;;;-143.57;100.00;65101.44;5100247;27;45476;-43
2022/06/20 08:49:29;;;;;;;;;20.33;17.33;;;;;-143.57;100.00;65101.44;5100202;27;45327;-42
2022/06/20 08:52:13;;;;;;;;;23.67;17.00;;;;;-143.57;100.00;65101.44;5100750;27;45461;-42
2022/06/20 08:55:05;;;;;;;;;14.00;12.67;;;;;-143.57;100.00;65101.44;5099970;27;45924;-44
2022/06/20 08:57:49;;;;;;;;;17.00;16.00;;;;;-143.57;100.00;65101.44;5099531;27;45501;-44
2022/06/20 09:00:55;;;;;;;;;16.33;15.33;;;;;-143.57;100.00;65101.44;5100154;27;45444;-44
2022/06/20 09:03:47;;;;;;;;;22.00;17.00;;;;;-143.57;100.00;65101.44;5017492;28;45417;-54
2022/06/20 09:06:19;;;;;;;;;20.67;17.00;;;;;-143.57;100.00;65101.44;5016909;28;46367;-45
2022/06/20 09:09:09;;;;;;;;;21.00;19.33;;;;;-143.57;100.00;65101.44;5015853;28;45409;-44
2022/06/20 09:11:53;;;;;;;;;21.00;19.33;;;;;-143.57;100.00;65101.44;5017254;28;45523;-60
2022/06/20 09:14:36;;;;;;;;;20.00;17.00;;;;;-143.57;100.00;65101.44;5017275;28;45352;-47
2022/06/20 09:17:01;;;;;;;;;21.00;17.00;;;;;-143.57;100.00;65101.44;5016701;28;46141;-44
2022/06/20 09:19:44;;;;;;;;;21.00;18.67;;;;;-143.57;100.00;65101.44;5016808;28;45513;-43
2022/06/20 09:22:37;;;;;;;;;16.00;14.33;;;;;-143.57;100.00;65101.44;5016375;28;45312;-62
2022/06/20 09:25:03;;;;;;;;;13.67;13.67;;;;;-143.57;100.00;65101.44;4976799;28;45344;-45
2022/06/20 09:27:31;;;;;;;;;18.33;16.33;;;;;-143.57;100.00;65101.44;4977062;28;46211;-44
2022/06/20 09:30:03;;;;;;;;;17.67;16.33;;;;;-143.57;100.00;65101.44;4977017;28;45536;-44
2022/06/20 09:32:53;;;;;;;;;20.33;16.00;;;;;-143.57;100.00;65101.44;4976994;28;45488;-44
2022/06/20 09:35:40;;;;;;;;;20.67;16.67;;;;;-143.57;100.00;65101.44;4977152;28;45354;-48
2022/06/20 09:38:27;;;;;;;;;19.67;16.00;;;;;-143.57;100.00;65101.44;4976896;28;47330;-56
2022/06/20 09:41:06;;;;;;;;;17.67;16.67;;;;;-143.57;100.00;65101.44;5026217;28;45395;-64
2022/06/20 09:43:47;;;;;;;;;20.00;18.33;;;;;-143.57;100.00;65101.44;5036780;28;45396;-47
2022/06/20 09:46:32;;;;;;;;;16.00;16.00;;;;;-143.57;100.00;65101.44;5036595;28;45529;-43
2022/06/20 09:49:31;;;;;;;;;18.67;16.33;;;;;-143.57;100.00;65101.44;5036126;28;46176;-42
2022/06/20 09:52:26;;;;;;;;;25.00;20.33;;;;;-143.57;100.00;65101.44;5036272;28;45404;-61
2022/06/20 09:55:03;;;;;;;;;17.00;17.00;;;;;-143.57;100.00;65101.44;5025861;28;45460;-43
2022/06/20 09:57:45;;;;;;;;;19.33;14.67;;;;;-143.57;100.00;65101.44;5036754;28;45806;-42
2022/06/20 10:00:18;;;;;;;;;18.33;15.67;;;;;-143.57;100.00;65101.44;5036297;28;45342;-55
2022/06/20 10:02:55;;;;;;;;;26.00;18.67;;;;;-143.57;100.00;65101.44;5086610;27;45350;-56
2022/06/20 10:05:44;;;;;;;;;17.00;15.00;;;;;-143.57;100.00;65101.44;5099010;27;45419;-54
2022/06/20 10:08:40;;;;;;;;;24.00;19.67;;;;;-143.57;100.00;65101.44;5099218;27;45320;-51
2022/06/20 10:11:16;;;;;;;;;24.00;21.33;;;;;-143.57;100.00;65101.44;5099020;27;47250;-43
2022/06/20 10:14:03;;;;;;;;;21.00;21.00;;;;;-143.57;100.00;65101.44;5099184;27;45382;-65
2022/06/20 10:17:12;;;;;;;;;19.67;19.33;;;;;-143.57;100.00;65101.44;5114986;27;45395;-61
2022/06/20 10:19:53;;;;;;;;;23.67;18.33;;;;;-143.57;100.00;65101.44;5015912;28;45440;-60
2022/06/20 10:22:24;;;;;;;;;26.00;21.67;;;;;-143.57;100.00;65101.44;5015519;28;45456;-65
2022/06/20 10:24:55;;;;;;;;;21.33;20.33;;;;;-143.57;100.00;65101.44;5015712;28;45536;-45
2022/06/20 10:27:38;;;;;;;;;21.00;18.67;;;;;-143.57;100.00;65101.44;5015807;28;45448;-56
2022/06/20 10:30:31;;;;;;;;;22.00;20.00;;;;;-143.57;100.00;65101.44;5015110;28;45823;-57
2022/06/20 10:33:21;;;;;;;;;24.33;21.00;;;;;-143.57;100.00;65101.44;5014882;28;46337;-53
2022/06/20 10:36:09;;;;;;;;;22.00;19.33;;;;;-143.57;100.00;65101.44;5015663;28;45403;-48
2022/06/20 10:38:46;;;;;;;;;23.00;21.33;;;;;-143.57;100.00;65101.44;5015964;28;45371;-44
2022/06/20 10:41:17;;;;;;;;;22.67;21.67;;;;;-143.57;100.00;65101.44;5014916;28;45491;-42
2022/06/20 10:44:10;;;;;;;;;24.00;22.33;;;;;-143.57;100.00;65101.44;5015363;28;46094;-56
2022/06/20 10:46:42;;;;;;;;;24.00;20.67;;;;;-143.57;100.00;65101.44;5014784;28;45416;-57
2022/06/20 10:49:49;;;;;;;;;20.33;18.67;;;;;-143.57;100.00;65101.44;5015462;28;45469;-62
2022/06/20 10:52:42;;;;;;;;;24.33;21.67;;;;;-143.57;100.00;65101.44;5015294;28;45570;-64
2022/06/20 10:55:25;;;;;;;;;19.00;18.67;;;;;-143.57;100.00;65101.44;5042613;28;46160;-51
2022/06/20 10:58:26;;;;;;;;;25.67;25.00;;;;;-143.57;100.00;65101.44;5077702;28;45472;-49
2022/06/20 11:01:24;;;;;;;;;21.00;18.00;;;;;-143.57;100.00;65101.44;5078043;27;45478;-60
2022/06/20 11:04:16;;;;;;;;;21.33;18.67;;;;;-143.57;100.00;65101.44;5055570;28;45458;-57
2022/06/20 11:07:20;;;;;;;;;13.75;13.75;;;;;-143.57;100.00;65101.44;5055028;28;46137;-67
2022/06/20 11:10:00;;;;;;;;;13.67;11.00;;;;;-143.57;100.00;65101.44;5033772;28;45852;-52
2022/06/20 11:12:35;;;;;;;;;24.33;21.00;;;;;-143.57;100.00;65101.44;5055513;28;45418;-65
2022/06/20 11:15:25;;;;;;;;;26.00;20.75;;;;;-143.57;100.00;65101.44;5055237;28;45433;-62
2022/06/20 11:18:00;;;;;;;;;20.67;19.00;;;;;-143.57;100.00;65101.44;5055279;28;47163;-61
2022/06/20 11:20:39;;;;;;;;;19.50;18.50;;;;;-143.57;100.00;65101.44;5055134;28;45498;-66
2022/06/20 11:23:44;;;;;;;;;29.50;20.25;;;;;-143.57;100.00;65101.44;5055062;28;45468;-54
2022/06/20 11:26:23;;;;;;;;;21.50;17.50;;;;;-143.57;100.00;65101.44;5055174;28;45544;-67
2022/06/20 11:29:11;;;;;;;;;23.25;18.75;;;;;-143.57;100.00;65101.44;5054961;28;46129;-66
2022/06/20 11:32:18;;;;;;;;;15.25;14.50;;;;;-143.57;100.00;65101.44;5034841;28;45558;-61
2022/06/20 11:34:53;;;;;;;;;22.75;17.50;;;;;-143.57;100.00;65101.44;5035118;28;45429;-53
2022/06/20 11:37:57;;;;;;;;;19.25;16.75;;;;;-143.57;100.00;65101.44;5035171;28;45381;-55
2022/06/20 11:40:28;;;;;;;;;16.75;16.75;;;;;-143.57;100.00;65101.44;5042166;28;46098;-57
2022/06/20 11:43:15;;;;;;;;;18.50;18.25;;;;;-143.57;100.00;65101.44;5055098;28;45332;-59
2022/06/20 11:46:02;;;;;;;;;17.00;17.00;;;;;-143.57;100.00;65101.44;5054651;28;45347;-62
2022/06/20 11:48:56;;;;;;;;;19.75;18.00;;;;;-143.57;100.00;65101.44;5054950;28;45579;-59
2022/06/20 11:51:28;;;;;;;;;25.25;18.25;;;;;-143.57;100.00;65101.44;5054432;28;46234;-63